sensor_id;sensor_type;location;lat;lon;timestamp;pressure;altitude;pressure_sealevel;temperature;humidity
77017;BME280;65949;53.132;17.930;2023-12-28T00:01:45;101197.92;;;0.45;92.65
77017;BME280;65949;53.132;17.930;2023-12-28T00:04:12;101197.70;;;0.43;92.62
77017;BME280;65949;53.132;17.930;2023-12-28T00:06:39;101197.29;;;0.40;92.62
77017;BME280;65949;53.132;17.930;2023-12-28T00:09:05;101195.24;;;0.39;92.74
77017;BME280;65949;53.132;17.930;2023-12-28T00:11:32;101190.81;;;0.37;92.61
77017;BME280;65949;53.132;17.930;2023-12-28T00:13:59;101185.27;;;0.36;92.75
77017;BME280;65949;53.132;17.930;2023-12-28T00:16:25;101181.76;;;0.36;92.59
77017;BME280;65949;53.132;17.930;2023-12-28T00:18:52;101181.63;;;0.35;92.81
77017;BME280;65949;53.132;17.930;2023-12-28T00:21:19;101178.73;;;0.35;92.84
77017;BME280;65949;53.132;17.930;2023-12-28T00:23:45;101175.98;;;0.35;92.95
77017;BME280;65949;53.132;17.930;2023-12-28T00:26:12;101167.00;;;0.35;92.96
77017;BME280;65949;53.132;17.930;2023-12-28T00:28:41;101159.76;;;0.34;92.82
77017;BME280;65949;53.132;17.930;2023-12-28T00:31:09;101145.61;;;0.32;92.81
77017;BME280;65949;53.132;17.930;2023-12-28T00:33:35;101133.48;;;0.30;93.02
77017;BME280;65949;53.132;17.930;2023-12-28T00:36:03;101131.19;;;0.31;92.90
77017;BME280;65949;53.132;17.930;2023-12-28T00:38:31;101126.73;;;0.30;92.99
77017;BME280;65949;53.132;17.930;2023-12-28T00:40:57;101123.19;;;0.28;93.09
77017;BME280;65949;53.132;17.930;2023-12-28T00:43:24;101118.16;;;0.27;93.09
77017;BME280;65949;53.132;17.930;2023-12-28T00:45:50;101106.80;;;0.23;93.31
77017;BME280;65949;53.132;17.930;2023-12-28T00:48:17;101098.00;;;0.24;93.11
77017;BME280;65949;53.132;17.930;2023-12-28T00:50:44;101092.35;;;0.23;93.34
77017;BME280;65949;53.132;17.930;2023-12-28T00:53:10;101096.39;;;0.22;93.35
77017;BME280;65949;53.132;17.930;2023-12-28T00:55:37;101103.54;;;0.23;93.56
77017;BME280;65949;53.132;17.930;2023-12-28T00:58:03;101094.45;;;0.24;93.28
77017;BME280;65949;53.132;17.930;2023-12-28T01:00:30;101085.98;;;0.24;93.47
77017;BME280;65949;53.132;17.930;2023-12-28T01:02:57;101080.73;;;0.24;93.33
77017;BME280;65949;53.132;17.930;2023-12-28T01:05:23;101069.25;;;0.24;93.34
77017;BME280;65949;53.132;17.930;2023-12-28T01:07:52;101059.29;;;0.25;93.51
77017;BME280;65949;53.132;17.930;2023-12-28T01:10:19;101051.80;;;0.23;93.29
77017;BME280;65949;53.132;17.930;2023-12-28T01:12:45;101052.42;;;0.22;93.42
77017;BME280;65949;53.132;17.930;2023-12-28T01:15:12;101052.02;;;0.21;93.49
77017;BME280;65949;53.132;17.930;2023-12-28T01:17:39;101053.85;;;0.22;93.59
77017;BME280;65949;53.132;17.930;2023-12-28T01:20:06;101053.94;;;0.22;93.74
77017;BME280;65949;53.132;17.930;2023-12-28T01:22:33;101051.14;;;0.23;93.42
77017;BME280;65949;53.132;17.930;2023-12-28T01:25:00;101047.95;;;0.24;93.69
77017;BME280;65949;53.132;17.930;2023-12-28T01:27:26;101047.70;;;0.25;93.56
77017;BME280;65949;53.132;17.930;2023-12-28T01:29:55;101058.17;;;0.27;93.39
77017;BME280;65949;53.132;17.930;2023-12-28T01:32:22;101057.98;;;0.29;93.30
77017;BME280;65949;53.132;17.930;2023-12-28T01:34:49;101046.52;;;0.32;93.30
77017;BME280;65949;53.132;17.930;2023-12-28T01:37:15;101041.80;;;0.34;93.47
77017;BME280;65949;53.132;17.930;2023-12-28T01:39:42;101040.48;;;0.35;93.18
77017;BME280;65949;53.132;17.930;2023-12-28T01:42:09;101037.73;;;0.37;93.16
77017;BME280;65949;53.132;17.930;2023-12-28T01:44:36;101018.73;;;0.38;93.05
77017;BME280;65949;53.132;17.930;2023-12-28T01:47:02;101005.13;;;0.39;93.10
77017;BME280;65949;53.132;17.930;2023-12-28T01:49:30;100998.82;;;0.40;93.15
77017;BME280;65949;53.132;17.930;2023-12-28T01:51:59;100995.88;;;0.41;92.75
77017;BME280;65949;53.132;17.930;2023-12-28T01:54:27;100992.77;;;0.42;92.91
77017;BME280;65949;53.132;17.930;2023-12-28T01:56:54;100986.23;;;0.43;92.94
77017;BME280;65949;53.132;17.930;2023-12-28T01:59:21;100973.73;;;0.45;92.92
77017;BME280;65949;53.132;17.930;2023-12-28T02:01:48;100970.88;;;0.45;92.60
77017;BME280;65949;53.132;17.930;2023-12-28T02:04:15;100963.15;;;0.46;92.48
77017;BME280;65949;53.132;17.930;2023-12-28T02:06:42;100957.58;;;0.45;92.42
77017;BME280;65949;53.132;17.930;2023-12-28T02:09:09;100950.96;;;0.46;92.52
77017;BME280;65949;53.132;17.930;2023-12-28T02:11:35;100940.08;;;0.47;92.51
77017;BME280;65949;53.132;17.930;2023-12-28T02:14:03;100932.23;;;0.47;92.44
77017;BME280;65949;53.132;17.930;2023-12-28T02:16:33;100923.60;;;0.48;92.25
77017;BME280;65949;53.132;17.930;2023-12-28T02:19:24;100919.23;;;0.49;92.32
77017;BME280;65949;53.132;17.930;2023-12-28T02:21:53;100914.95;;;0.50;92.32
77017;BME280;65949;53.132;17.930;2023-12-28T02:24:21;100910.77;;;0.51;92.21
77017;BME280;65949;53.132;17.930;2023-12-28T02:26:48;100905.89;;;0.51;92.15
77017;BME280;65949;53.132;17.930;2023-12-28T02:29:15;100893.91;;;0.52;92.03
77017;BME280;65949;53.132;17.930;2023-12-28T02:31:47;100891.39;;;0.53;92.11
77017;BME280;65949;53.132;17.930;2023-12-28T02:34:26;100880.55;;;0.53;91.94
77017;BME280;65949;53.132;17.930;2023-12-28T02:36:55;100877.48;;;0.55;91.80
77017;BME280;65949;53.132;17.930;2023-12-28T02:39:24;100866.52;;;0.55;91.74
77017;BME280;65949;53.132;17.930;2023-12-28T02:41:52;100854.80;;;0.55;91.68
77017;BME280;65949;53.132;17.930;2023-12-28T02:44:19;100836.39;;;0.55;91.59
77017;BME280;65949;53.132;17.930;2023-12-28T02:46:46;100825.60;;;0.55;91.71
77017;BME280;65949;53.132;17.930;2023-12-28T02:49:13;100824.32;;;0.56;91.63
77017;BME280;65949;53.132;17.930;2023-12-28T02:51:41;100811.98;;;0.56;91.46
77017;BME280;65949;53.132;17.930;2023-12-28T02:54:11;100811.31;;;0.57;91.55
77017;BME280;65949;53.132;17.930;2023-12-28T02:56:40;100801.91;;;0.57;91.27
77017;BME280;65949;53.132;17.930;2023-12-28T02:59:07;100800.47;;;0.58;91.21
77017;BME280;65949;53.132;17.930;2023-12-28T03:01:34;100794.63;;;0.58;91.22
77017;BME280;65949;53.132;17.930;2023-12-28T03:04:01;100784.36;;;0.57;91.14
77017;BME280;65949;53.132;17.930;2023-12-28T03:06:27;100775.84;;;0.57;91.17
77017;BME280;65949;53.132;17.930;2023-12-28T03:08:54;100768.54;;;0.57;91.18
77017;BME280;65949;53.132;17.930;2023-12-28T03:11:20;100767.44;;;0.56;91.06
77017;BME280;65949;53.132;17.930;2023-12-28T03:13:47;100759.85;;;0.56;91.05
77017;BME280;65949;53.132;17.930;2023-12-28T03:16:14;100755.17;;;0.57;91.09
77017;BME280;65949;53.132;17.930;2023-12-28T03:18:41;100749.13;;;0.57;90.99
77017;BME280;65949;53.132;17.930;2023-12-28T03:21:09;100747.55;;;0.57;90.98
77017;BME280;65949;53.132;17.930;2023-12-28T03:23:35;100738.45;;;0.58;90.94
77017;BME280;65949;53.132;17.930;2023-12-28T03:26:02;100732.45;;;0.58;90.82
77017;BME280;65949;53.132;17.930;2023-12-28T03:28:28;100734.32;;;0.59;91.08
77017;BME280;65949;53.132;17.930;2023-12-28T03:30:55;100735.90;;;0.60;90.85
77017;BME280;65949;53.132;17.930;2023-12-28T03:33:22;100744.67;;;0.63;90.89
77017;BME280;65949;53.132;17.930;2023-12-28T03:35:48;100747.80;;;0.63;90.94
77017;BME280;65949;53.132;17.930;2023-12-28T03:38:15;100734.73;;;0.64;90.81
77017;BME280;65949;53.132;17.930;2023-12-28T03:40:41;100729.27;;;0.64;90.82
77017;BME280;65949;53.132;17.930;2023-12-28T03:43:08;100728.45;;;0.65;90.77
77017;BME280;65949;53.132;17.930;2023-12-28T03:45:35;100731.97;;;0.66;90.58
77017;BME280;65949;53.132;17.930;2023-12-28T03:48:01;100729.79;;;0.66;90.76
77017;BME280;65949;53.132;17.930;2023-12-28T03:50:28;100722.25;;;0.66;90.79
77017;BME280;65949;53.132;17.930;2023-12-28T03:52:54;100717.48;;;0.65;90.60
77017;BME280;65949;53.132;17.930;2023-12-28T03:55:22;100703.05;;;0.66;90.59
77017;BME280;65949;53.132;17.930;2023-12-28T03:57:48;100690.30;;;0.66;90.54
77017;BME280;65949;53.132;17.930;2023-12-28T04:00:17;100704.66;;;0.66;90.59
77017;BME280;65949;53.132;17.930;2023-12-28T04:02:44;100693.98;;;0.65;90.68
77017;BME280;65949;53.132;17.930;2023-12-28T04:05:10;100678.71;;;0.64;90.64
77017;BME280;65949;53.132;17.930;2023-12-28T04:07:37;100680.52;;;0.63;90.72
77017;BME280;65949;53.132;17.930;2023-12-28T04:10:04;100673.45;;;0.62;90.57
77017;BME280;65949;53.132;17.930;2023-12-28T04:12:31;100652.40;;;0.62;90.78
77017;BME280;65949;53.132;17.930;2023-12-28T04:14:58;100650.90;;;0.62;90.73
77017;BME280;65949;53.132;17.930;2023-12-28T04:17:24;100658.85;;;0.61;90.67
77017;BME280;65949;53.132;17.930;2023-12-28T04:19:51;100669.34;;;0.61;90.82
77017;BME280;65949;53.132;17.930;2023-12-28T04:22:18;100671.86;;;0.61;90.73
77017;BME280;65949;53.132;17.930;2023-12-28T04:24:44;100666.24;;;0.62;90.92
77017;BME280;65949;53.132;17.930;2023-12-28T04:27:11;100649.52;;;0.63;90.92
77017;BME280;65949;53.132;17.930;2023-12-28T04:29:38;100644.95;;;0.64;90.95
77017;BME280;65949;53.132;17.930;2023-12-28T04:32:05;100630.27;;;0.65;91.06
77017;BME280;65949;53.132;17.930;2023-12-28T04:34:32;100611.71;;;0.68;91.23
77017;BME280;65949;53.132;17.930;2023-12-28T04:36:58;100602.24;;;0.70;91.05
77017;BME280;65949;53.132;17.930;2023-12-28T04:39:25;100602.42;;;0.72;91.08
77017;BME280;65949;53.132;17.930;2023-12-28T04:41:52;100625.98;;;0.75;91.10
77017;BME280;65949;53.132;17.930;2023-12-28T04:44:20;100628.11;;;0.77;91.26
77017;BME280;65949;53.132;17.930;2023-12-28T04:46:46;100629.19;;;0.81;91.13
77017;BME280;65949;53.132;17.930;2023-12-28T04:49:13;100642.35;;;0.84;91.29
77017;BME280;65949;53.132;17.930;2023-12-28T04:51:43;100648.25;;;0.87;91.22
77017;BME280;65949;53.132;17.930;2023-12-28T04:54:10;100637.13;;;0.90;91.19
77017;BME280;65949;53.132;17.930;2023-12-28T04:56:37;100636.75;;;0.94;91.13
77017;BME280;65949;53.132;17.930;2023-12-28T04:59:03;100630.88;;;0.98;90.98
77017;BME280;65949;53.132;17.930;2023-12-28T05:01:30;100625.53;;;0.99;90.86
77017;BME280;65949;53.132;17.930;2023-12-28T05:03:59;100620.65;;;1.01;90.92
77017;BME280;65949;53.132;17.930;2023-12-28T05:06:27;100638.92;;;1.03;90.93
77017;BME280;65949;53.132;17.930;2023-12-28T05:08:54;100626.82;;;1.04;90.93
77017;BME280;65949;53.132;17.930;2023-12-28T05:11:21;100614.61;;;1.04;90.93
77017;BME280;65949;53.132;17.930;2023-12-28T05:13:48;100619.48;;;1.06;90.84
77017;BME280;65949;53.132;17.930;2023-12-28T05:16:14;100614.95;;;1.08;90.91
77017;BME280;65949;53.132;17.930;2023-12-28T05:18:41;100614.96;;;1.10;90.80
77017;BME280;65949;53.132;17.930;2023-12-28T05:21:07;100614.45;;;1.11;90.80
77017;BME280;65949;53.132;17.930;2023-12-28T05:23:34;100615.13;;;1.12;90.66
77017;BME280;65949;53.132;17.930;2023-12-28T05:26:00;100616.64;;;1.14;90.80
77017;BME280;65949;53.132;17.930;2023-12-28T05:28:27;100616.67;;;1.16;90.70
77017;BME280;65949;53.132;17.930;2023-12-28T05:30:53;100622.77;;;1.18;90.69
77017;BME280;65949;53.132;17.930;2023-12-28T05:33:20;100611.02;;;1.20;90.70
77017;BME280;65949;53.132;17.930;2023-12-28T05:35:47;100602.77;;;1.22;90.72
77017;BME280;65949;53.132;17.930;2023-12-28T05:38:13;100603.67;;;1.24;90.71
77017;BME280;65949;53.132;17.930;2023-12-28T05:40:40;100606.77;;;1.27;90.60
77017;BME280;65949;53.132;17.930;2023-12-28T05:43:07;100603.14;;;1.30;90.65
77017;BME280;65949;53.132;17.930;2023-12-28T05:45:33;100587.30;;;1.32;90.51
77017;BME280;65949;53.132;17.930;2023-12-28T05:48:00;100592.55;;;1.33;90.58
77017;BME280;65949;53.132;17.930;2023-12-28T05:50:27;100593.33;;;1.34;90.56
77017;BME280;65949;53.132;17.930;2023-12-28T05:52:53;100597.52;;;1.38;90.56
77017;BME280;65949;53.132;17.930;2023-12-28T05:55:20;100592.30;;;1.39;90.52
77017;BME280;65949;53.132;17.930;2023-12-28T05:57:47;100597.45;;;1.41;90.43
77017;BME280;65949;53.132;17.930;2023-12-28T06:00:16;100585.79;;;1.42;90.40
77017;BME280;65949;53.132;17.930;2023-12-28T06:02:43;100574.30;;;1.44;90.29
77017;BME280;65949;53.132;17.930;2023-12-28T06:05:10;100560.25;;;1.45;90.43
77017;BME280;65949;53.132;17.930;2023-12-28T06:07:36;100560.80;;;1.48;90.35
77017;BME280;65949;53.132;17.930;2023-12-28T06:10:03;100555.39;;;1.49;90.29
77017;BME280;65949;53.132;17.930;2023-12-28T06:12:30;100563.64;;;1.52;90.20
77017;BME280;65949;53.132;17.930;2023-12-28T06:14:57;100560.52;;;1.55;90.29
77017;BME280;65949;53.132;17.930;2023-12-28T06:17:24;100562.75;;;1.57;90.26
77017;BME280;65949;53.132;17.930;2023-12-28T06:19:50;100572.59;;;1.62;90.27
77017;BME280;65949;53.132;17.930;2023-12-28T06:22:17;100573.07;;;1.66;90.20
77017;BME280;65949;53.132;17.930;2023-12-28T06:24:43;100578.84;;;1.71;90.10
77017;BME280;65949;53.132;17.930;2023-12-28T06:27:10;100574.70;;;1.75;90.02
77017;BME280;65949;53.132;17.930;2023-12-28T06:29:36;100576.73;;;1.78;90.08
77017;BME280;65949;53.132;17.930;2023-12-28T06:32:03;100581.66;;;1.80;90.09
77017;BME280;65949;53.132;17.930;2023-12-28T06:34:30;100575.96;;;1.83;90.07
77017;BME280;65949;53.132;17.930;2023-12-28T06:36:57;100576.60;;;1.86;90.05
77017;BME280;65949;53.132;17.930;2023-12-28T06:39:23;100574.08;;;1.90;90.15
77017;BME280;65949;53.132;17.930;2023-12-28T06:41:50;100575.58;;;1.94;90.03
77017;BME280;65949;53.132;17.930;2023-12-28T06:44:16;100584.04;;;1.99;90.29
77017;BME280;65949;53.132;17.930;2023-12-28T06:46:43;100590.29;;;2.04;90.17
77017;BME280;65949;53.132;17.930;2023-12-28T06:49:10;100597.96;;;2.09;90.31
77017;BME280;65949;53.132;17.930;2023-12-28T06:51:36;100600.14;;;2.13;90.62
77017;BME280;65949;53.132;17.930;2023-12-28T06:54:04;100614.34;;;2.19;90.59
77017;BME280;65949;53.132;17.930;2023-12-28T06:56:30;100617.41;;;2.23;91.04
77017;BME280;65949;53.132;17.930;2023-12-28T06:58:57;100621.40;;;2.27;91.03
77017;BME280;65949;53.132;17.930;2023-12-28T07:01:23;100623.14;;;2.31;91.21
77017;BME280;65949;53.132;17.930;2023-12-28T07:03:50;100625.76;;;2.35;91.62
77017;BME280;65949;53.132;17.930;2023-12-28T07:06:16;100626.27;;;2.37;91.60
77017;BME280;65949;53.132;17.930;2023-12-28T07:08:43;100622.47;;;2.40;91.82
77017;BME280;65949;53.132;17.930;2023-12-28T07:11:10;100627.05;;;2.42;92.11
77017;BME280;65949;53.132;17.930;2023-12-28T07:13:38;100623.69;;;2.44;92.31
77017;BME280;65949;53.132;17.930;2023-12-28T07:16:05;100623.27;;;2.46;92.55
77017;BME280;65949;53.132;17.930;2023-12-28T07:18:34;100628.63;;;2.48;92.65
77017;BME280;65949;53.132;17.930;2023-12-28T07:21:00;100628.67;;;2.49;92.64
77017;BME280;65949;53.132;17.930;2023-12-28T07:23:27;100627.16;;;2.52;93.29
77017;BME280;65949;53.132;17.930;2023-12-28T07:25:53;100624.35;;;2.56;93.51
77017;BME280;65949;53.132;17.930;2023-12-28T07:28:20;100628.58;;;2.58;93.50
77017;BME280;65949;53.132;17.930;2023-12-28T07:30:47;100636.44;;;2.61;93.39
77017;BME280;65949;53.132;17.930;2023-12-28T07:33:13;100646.18;;;2.64;93.96
77017;BME280;65949;53.132;17.930;2023-12-28T07:35:40;100650.67;;;2.66;93.78
77017;BME280;65949;53.132;17.930;2023-12-28T07:38:06;100653.77;;;2.69;93.95
77017;BME280;65949;53.132;17.930;2023-12-28T07:40:33;100654.84;;;2.71;93.96
77017;BME280;65949;53.132;17.930;2023-12-28T07:43:00;100656.53;;;2.74;93.90
77017;BME280;65949;53.132;17.930;2023-12-28T07:45:27;100657.88;;;2.77;93.67
77017;BME280;65949;53.132;17.930;2023-12-28T07:47:54;100655.05;;;2.80;94.11
77017;BME280;65949;53.132;17.930;2023-12-28T07:50:20;100650.96;;;2.84;94.32
77017;BME280;65949;53.132;17.930;2023-12-28T07:52:48;100651.80;;;2.87;94.18
77017;BME280;65949;53.132;17.930;2023-12-28T07:55:15;100652.46;;;2.92;94.44
77017;BME280;65949;53.132;17.930;2023-12-28T07:57:42;100654.86;;;2.97;94.65
77017;BME280;65949;53.132;17.930;2023-12-28T08:00:09;100654.29;;;3.02;94.94
77017;BME280;65949;53.132;17.930;2023-12-28T08:02:36;100656.89;;;3.07;94.83
77017;BME280;65949;53.132;17.930;2023-12-28T08:05:04;100660.43;;;3.13;94.96
77017;BME280;65949;53.132;17.930;2023-12-28T08:07:31;100659.42;;;3.18;95.06
77017;BME280;65949;53.132;17.930;2023-12-28T08:09:57;100662.18;;;3.24;94.52
77017;BME280;65949;53.132;17.930;2023-12-28T08:12:24;100661.20;;;3.30;94.59
77017;BME280;65949;53.132;17.930;2023-12-28T08:14:54;100661.27;;;3.34;94.53
77017;BME280;65949;53.132;17.930;2023-12-28T08:17:21;100662.87;;;3.39;94.93
77017;BME280;65949;53.132;17.930;2023-12-28T08:19:47;100659.08;;;3.44;94.71
77017;BME280;65949;53.132;17.930;2023-12-28T08:22:14;100665.55;;;3.49;94.80
77017;BME280;65949;53.132;17.930;2023-12-28T08:24:42;100671.02;;;3.54;94.92
77017;BME280;65949;53.132;17.930;2023-12-28T08:27:08;100664.52;;;3.58;95.15
77017;BME280;65949;53.132;17.930;2023-12-28T08:29:35;100657.32;;;3.63;95.19
77017;BME280;65949;53.132;17.930;2023-12-28T08:32:02;100660.19;;;3.67;95.15
77017;BME280;65949;53.132;17.930;2023-12-28T08:34:29;100673.45;;;3.72;95.21
77017;BME280;65949;53.132;17.930;2023-12-28T08:36:56;100670.65;;;3.77;95.13
77017;BME280;65949;53.132;17.930;2023-12-28T08:39:23;100668.32;;;3.79;95.27
77017;BME280;65949;53.132;17.930;2023-12-28T08:41:49;100668.91;;;3.83;95.55
77017;BME280;65949;53.132;17.930;2023-12-28T08:44:16;100672.63;;;3.86;95.25
77017;BME280;65949;53.132;17.930;2023-12-28T08:46:42;100678.98;;;3.88;95.00
77017;BME280;65949;53.132;17.930;2023-12-28T08:49:09;100685.48;;;3.90;95.41
77017;BME280;65949;53.132;17.930;2023-12-28T08:51:36;100691.58;;;3.93;95.02
77017;BME280;65949;53.132;17.930;2023-12-28T08:54:02;100694.26;;;3.95;95.16
77017;BME280;65949;53.132;17.930;2023-12-28T08:56:29;100702.02;;;3.97;95.22
77017;BME280;65949;53.132;17.930;2023-12-28T08:58:56;100697.23;;;4.00;95.15
77017;BME280;65949;53.132;17.930;2023-12-28T09:01:23;100694.83;;;4.06;95.33
77017;BME280;65949;53.132;17.930;2023-12-28T09:03:52;100703.95;;;4.10;95.40
77017;BME280;65949;53.132;17.930;2023-12-28T09:06:20;100702.46;;;4.15;95.35
77017;BME280;65949;53.132;17.930;2023-12-28T09:08:51;100700.27;;;4.21;95.41
77017;BME280;65949;53.132;17.930;2023-12-28T09:11:19;100707.61;;;4.27;95.48
77017;BME280;65949;53.132;17.930;2023-12-28T09:13:46;100702.48;;;4.33;95.35
77017;BME280;65949;53.132;17.930;2023-12-28T09:16:13;100702.52;;;4.40;95.51
77017;BME280;65949;53.132;17.930;2023-12-28T09:18:41;100698.38;;;4.47;95.44
77017;BME280;65949;53.132;17.930;2023-12-28T09:21:09;100694.46;;;4.54;95.26
77017;BME280;65949;53.132;17.930;2023-12-28T09:23:36;100700.91;;;4.60;95.10
77017;BME280;65949;53.132;17.930;2023-12-28T09:26:04;100697.85;;;4.66;95.36
77017;BME280;65949;53.132;17.930;2023-12-28T09:28:32;100688.34;;;4.73;95.24
77017;BME280;65949;53.132;17.930;2023-12-28T09:31:00;100681.57;;;4.79;95.01
77017;BME280;65949;53.132;17.930;2023-12-28T09:33:27;100686.73;;;4.86;95.00
77017;BME280;65949;53.132;17.930;2023-12-28T09:35:53;100689.29;;;4.92;94.83
77017;BME280;65949;53.132;17.930;2023-12-28T09:38:20;100684.06;;;4.95;94.71
77017;BME280;65949;53.132;17.930;2023-12-28T09:40:52;100684.96;;;5.01;94.53
77017;BME280;65949;53.132;17.930;2023-12-28T09:43:31;100682.48;;;5.05;94.49
77017;BME280;65949;53.132;17.930;2023-12-28T09:46:07;100680.78;;;5.09;94.33
77017;BME280;65949;53.132;17.930;2023-12-28T09:48:34;100683.00;;;5.13;94.18
77017;BME280;65949;53.132;17.930;2023-12-28T09:51:03;100681.57;;;5.17;94.04
77017;BME280;65949;53.132;17.930;2023-12-28T09:53:30;100673.51;;;5.20;93.94
77017;BME280;65949;53.132;17.930;2023-12-28T09:55:57;100674.15;;;5.23;93.84
77017;BME280;65949;53.132;17.930;2023-12-28T09:58:25;100675.47;;;5.24;93.63
77017;BME280;65949;53.132;17.930;2023-12-28T10:00:52;100674.90;;;5.26;93.44
77017;BME280;65949;53.132;17.930;2023-12-28T10:03:19;100669.58;;;5.29;93.48
77017;BME280;65949;53.132;17.930;2023-12-28T10:05:46;100674.70;;;5.32;93.24
77017;BME280;65949;53.132;17.930;2023-12-28T10:08:15;100674.27;;;5.35;92.93
77017;BME280;65949;53.132;17.930;2023-12-28T10:10:44;100676.16;;;5.37;92.99
77017;BME280;65949;53.132;17.930;2023-12-28T10:13:17;100676.98;;;5.39;92.75
77017;BME280;65949;53.132;17.930;2023-12-28T10:15:44;100683.67;;;5.40;92.80
77017;BME280;65949;53.132;17.930;2023-12-28T10:18:10;100685.30;;;5.41;92.66
77017;BME280;65949;53.132;17.930;2023-12-28T10:20:38;100684.65;;;5.41;92.56
77017;BME280;65949;53.132;17.930;2023-12-28T10:23:05;100682.55;;;5.44;92.55
77017;BME280;65949;53.132;17.930;2023-12-28T10:25:32;100681.98;;;5.46;92.31
77017;BME280;65949;53.132;17.930;2023-12-28T10:28:05;100684.34;;;5.47;92.27
77017;BME280;65949;53.132;17.930;2023-12-28T10:30:34;100683.45;;;5.49;91.80
77017;BME280;65949;53.132;17.930;2023-12-28T10:33:04;100674.47;;;5.51;91.82
77017;BME280;65949;53.132;17.930;2023-12-28T10:35:32;100678.93;;;5.54;91.82
77017;BME280;65949;53.132;17.930;2023-12-28T10:38:00;100677.27;;;5.57;91.51
77017;BME280;65949;53.132;17.930;2023-12-28T10:40:27;100682.98;;;5.60;91.31
77017;BME280;65949;53.132;17.930;2023-12-28T10:42:57;100685.63;;;5.62;91.01
77017;BME280;65949;53.132;17.930;2023-12-28T10:45:28;100686.38;;;5.65;90.86
77017;BME280;65949;53.132;17.930;2023-12-28T10:48:06;100686.05;;;5.69;90.50
77017;BME280;65949;53.132;17.930;2023-12-28T10:50:42;100672.23;;;5.73;90.42
77017;BME280;65949;53.132;17.930;2023-12-28T10:53:26;100673.55;;;5.75;90.47
77017;BME280;65949;53.132;17.930;2023-12-28T10:59:14;100676.67;;;5.80;90.38
77017;BME280;65949;53.132;17.930;2023-12-28T11:01:46;100671.91;;;5.83;90.09
77017;BME280;65949;53.132;17.930;2023-12-28T11:04:42;100668.05;;;5.86;90.09
77017;BME280;65949;53.132;17.930;2023-12-28T11:07:13;100671.92;;;5.89;89.77
77017;BME280;65949;53.132;17.930;2023-12-28T11:09:41;100671.38;;;5.92;89.53
77017;BME280;65949;53.132;17.930;2023-12-28T11:12:08;100673.55;;;5.96;89.34
77017;BME280;65949;53.132;17.930;2023-12-28T11:14:42;100664.94;;;5.98;89.32
77017;BME280;65949;53.132;17.930;2023-12-28T11:17:09;100660.46;;;6.00;89.14
77017;BME280;65949;53.132;17.930;2023-12-28T11:19:37;100662.19;;;6.04;88.82
77017;BME280;65949;53.132;17.930;2023-12-28T11:22:05;100658.69;;;6.06;88.95
77017;BME280;65949;53.132;17.930;2023-12-28T11:24:32;100663.27;;;6.09;88.50
77017;BME280;65949;53.132;17.930;2023-12-28T11:26:59;100661.56;;;6.11;88.65
77017;BME280;65949;53.132;17.930;2023-12-28T11:29:29;100653.73;;;6.15;88.42
77017;BME280;65949;53.132;17.930;2023-12-28T11:31:59;100652.60;;;6.19;88.39
77017;BME280;65949;53.132;17.930;2023-12-28T11:34:33;100655.17;;;6.22;87.76
77017;BME280;65949;53.132;17.930;2023-12-28T11:37:03;100649.23;;;6.26;87.72
77017;BME280;65949;53.132;17.930;2023-12-28T11:39:35;100644.36;;;6.28;87.36
77017;BME280;65949;53.132;17.930;2023-12-28T11:42:03;100644.55;;;6.32;87.19
77017;BME280;65949;53.132;17.930;2023-12-28T11:44:43;100636.91;;;6.33;87.02
77017;BME280;65949;53.132;17.930;2023-12-28T11:47:20;100638.52;;;6.35;86.83
77017;BME280;65949;53.132;17.930;2023-12-28T11:49:48;100630.96;;;6.37;86.89
77017;BME280;65949;53.132;17.930;2023-12-28T11:52:29;100631.92;;;6.39;86.50
77017;BME280;65949;53.132;17.930;2023-12-28T11:54:57;100632.73;;;6.40;86.22
77017;BME280;65949;53.132;17.930;2023-12-28T11:57:24;100632.20;;;6.41;86.05
77017;BME280;65949;53.132;17.930;2023-12-28T11:59:56;100628.50;;;6.43;86.26
77017;BME280;65949;53.132;17.930;2023-12-28T12:02:23;100624.61;;;6.43;86.48
77017;BME280;65949;53.132;17.930;2023-12-28T12:04:50;100625.07;;;6.42;86.21
77017;BME280;65949;53.132;17.930;2023-12-28T12:07:17;100617.48;;;6.41;85.98
77017;BME280;65949;53.132;17.930;2023-12-28T12:09:44;100616.58;;;6.40;85.91
77017;BME280;65949;53.132;17.930;2023-12-28T12:12:11;100611.64;;;6.39;85.78
77017;BME280;65949;53.132;17.930;2023-12-28T12:14:37;100616.02;;;6.38;85.59
77017;BME280;65949;53.132;17.930;2023-12-28T12:17:04;100617.45;;;6.37;85.71
77017;BME280;65949;53.132;17.930;2023-12-28T12:19:32;100613.54;;;6.36;86.18
77017;BME280;65949;53.132;17.930;2023-12-28T12:21:59;100616.63;;;6.35;85.94
77017;BME280;65949;53.132;17.930;2023-12-28T12:24:25;100615.18;;;6.35;85.88
77017;BME280;65949;53.132;17.930;2023-12-28T12:26:52;100611.12;;;6.35;85.91
77017;BME280;65949;53.132;17.930;2023-12-28T12:29:19;100612.17;;;6.35;86.03
77017;BME280;65949;53.132;17.930;2023-12-28T12:31:48;100611.82;;;6.34;86.14
77017;BME280;65949;53.132;17.930;2023-12-28T12:34:16;100614.59;;;6.35;85.91
77017;BME280;65949;53.132;17.930;2023-12-28T12:36:44;100618.85;;;6.37;85.54
77017;BME280;65949;53.132;17.930;2023-12-28T12:39:10;100619.45;;;6.43;85.51
77017;BME280;65949;53.132;17.930;2023-12-28T12:41:40;100625.34;;;6.48;85.44
77017;BME280;65949;53.132;17.930;2023-12-28T12:44:08;100620.48;;;6.53;85.00
77017;BME280;65949;53.132;17.930;2023-12-28T12:46:36;100616.34;;;6.60;85.22
77017;BME280;65949;53.132;17.930;2023-12-28T12:49:03;100622.78;;;6.63;85.07
77017;BME280;65949;53.132;17.930;2023-12-28T12:51:32;100629.61;;;6.65;85.03
77017;BME280;65949;53.132;17.930;2023-12-28T12:53:59;100630.29;;;6.70;84.73
77017;BME280;65949;53.132;17.930;2023-12-28T12:56:26;100628.44;;;6.76;84.65